sensor_id;sensor_type;location;lat;lon;timestamp;pressure;altitude;pressure_sealevel;temperature;humidity
61573;BME280;47465;43.094;12.434;2023-04-07T04:19:11;98840.09;;;0.85;87.50
61573;BME280;47465;43.094;12.434;2023-04-07T04:21:37;98824.28;;;0.77;88.64
61573;BME280;47465;43.094;12.434;2023-04-07T04:24:03;98858.38;;;0.82;89.03
61573;BME280;47465;43.094;12.434;2023-04-07T04:26:29;98842.50;;;0.68;89.20
61573;BME280;47465;43.094;12.434;2023-04-07T04:28:55;98836.19;;;0.52;90.38
61573;BME280;47465;43.094;12.434;2023-04-07T04:31:21;98837.03;;;0.53;91.11
61573;BME280;47465;43.094;12.434;2023-04-07T04:33:47;98820.25;;;0.37;90.34
61573;BME280;47465;43.094;12.434;2023-04-07T04:36:14;98854.34;;;0.43;91.04
61573;BME280;47465;43.094;12.434;2023-04-07T04:38:40;98866.59;;;0.46;92.21
61573;BME280;47465;43.094;12.434;2023-04-07T04:41:06;98846.25;;;0.28;91.82
61573;BME280;47465;43.094;12.434;2023-04-07T04:43:31;98869.97;;;0.38;92.67
61573;BME280;47465;43.094;12.434;2023-04-07T04:45:57;98828.63;;;0.14;92.88
61573;BME280;47465;43.094;12.434;2023-04-07T04:48:23;98847.00;;;0.19;93.23
61573;BME280;47465;43.094;12.434;2023-04-07T04:50:49;98850.56;;;0.23;94.16
61573;BME280;47465;43.094;12.434;2023-04-07T04:53:17;98858.41;;;0.23;94.60
61573;BME280;47465;43.094;12.434;2023-04-07T04:55:43;98876.03;;;0.36;94.49
61573;BME280;47465;43.094;12.434;2023-04-07T04:58:11;98881.38;;;0.42;94.38
61573;BME280;47465;43.094;12.434;2023-04-07T05:00:37;98843.66;;;0.26;94.56
61573;BME280;47465;43.094;12.434;2023-04-07T05:03:03;98868.28;;;0.42;94.06
61573;BME280;47465;43.094;12.434;2023-04-07T05:05:29;98852.38;;;0.28;94.27
61573;BME280;47465;43.094;12.434;2023-04-07T05:07:55;98860.31;;;0.33;94.61
61573;BME280;47465;43.094;12.434;2023-04-07T05:10:22;98854.06;;;0.25;94.63
61573;BME280;47465;43.094;12.434;2023-04-07T05:12:48;98853.25;;;0.29;94.94
61573;BME280;47465;43.094;12.434;2023-04-07T05:15:14;98879.59;;;0.41;94.37
61573;BME280;47465;43.094;12.434;2023-04-07T05:17:40;98859.38;;;0.29;94.43
61573;BME280;47465;43.094;12.434;2023-04-07T05:20:08;98889.38;;;0.53;94.19
61573;BME280;47465;43.094;12.434;2023-04-07T05:22:35;98870.16;;;0.51;93.69
61573;BME280;47465;43.094;12.434;2023-04-07T05:25:01;98878.91;;;0.53;93.20
61573;BME280;47465;43.094;12.434;2023-04-07T05:27:28;98874.44;;;0.47;92.99
61573;BME280;47465;43.094;12.434;2023-04-07T05:29:54;98870.09;;;0.46;93.33
61573;BME280;47465;43.094;12.434;2023-04-07T05:32:20;98888.66;;;0.65;93.32
61573;BME280;47465;43.094;12.434;2023-04-07T05:34:46;98904.53;;;0.74;93.00
61573;BME280;47465;43.094;12.434;2023-04-07T05:37:11;98883.50;;;0.69;93.08
61573;BME280;47465;43.094;12.434;2023-04-07T05:39:37;98884.53;;;0.80;93.57
61573;BME280;47465;43.094;12.434;2023-04-07T05:42:03;98846.03;;;0.72;93.09
61573;BME280;47465;43.094;12.434;2023-04-07T05:44:31;98867.25;;;0.95;93.19
61573;BME280;47465;43.094;12.434;2023-04-07T05:46:56;98862.25;;;1.12;92.88
61573;BME280;47465;43.094;12.434;2023-04-07T05:49:22;98856.22;;;1.20;92.52
61573;BME280;47465;43.094;12.434;2023-04-07T05:51:48;98849.41;;;1.36;91.67
61573;BME280;47465;43.094;12.434;2023-04-07T05:54:14;98880.34;;;1.68;90.92
61573;BME280;47465;43.094;12.434;2023-04-07T05:56:41;98838.34;;;1.63;90.39
61573;BME280;47465;43.094;12.434;2023-04-07T05:59:06;98892.03;;;2.05;88.92
61573;BME280;47465;43.094;12.434;2023-04-07T06:01:34;98872.00;;;2.11;87.65
61573;BME280;47465;43.094;12.434;2023-04-07T06:04:00;98849.25;;;2.11;86.50
61573;BME280;47465;43.094;12.434;2023-04-07T06:06:28;98879.19;;;2.36;85.76
61573;BME280;47465;43.094;12.434;2023-04-07T06:08:54;98856.44;;;2.38;84.70
61573;BME280;47465;43.094;12.434;2023-04-07T06:11:19;98845.16;;;2.45;83.93
61573;BME280;47465;43.094;12.434;2023-04-07T06:13:45;98861.91;;;2.67;82.79
61573;BME280;47465;43.094;12.434;2023-04-07T06:16:11;98874.31;;;2.93;82.28
61573;BME280;47465;43.094;12.434;2023-04-07T06:18:39;98839.31;;;3.02;80.63
61573;BME280;47465;43.094;12.434;2023-04-07T06:21:05;98863.97;;;3.33;80.19
61573;BME280;47465;43.094;12.434;2023-04-07T06:23:31;98856.09;;;3.39;79.44
61573;BME280;47465;43.094;12.434;2023-04-07T06:25:57;98853.50;;;3.55;78.71
61573;BME280;47465;43.094;12.434;2023-04-07T06:28:22;98859.66;;;3.70;78.17
61573;BME280;47465;43.094;12.434;2023-04-07T06:30:48;98873.72;;;3.99;77.65
61573;BME280;47465;43.094;12.434;2023-04-07T06:33:14;98857.94;;;3.99;76.64
61573;BME280;47465;43.094;12.434;2023-04-07T06:35:42;98885.16;;;4.27;75.95
61573;BME280;47465;43.094;12.434;2023-04-07T06:38:08;98871.97;;;4.38;75.00
61573;BME280;47465;43.094;12.434;2023-04-07T06:40:36;98896.53;;;4.67;74.10
61573;BME280;47465;43.094;12.434;2023-04-07T06:43:01;98878.97;;;4.79;73.25
61573;BME280;47465;43.094;12.434;2023-04-07T06:45:28;98851.72;;;4.81;71.46
61573;BME280;47465;43.094;12.434;2023-04-07T06:47:54;98877.13;;;5.14;69.34
61573;BME280;47465;43.094;12.434;2023-04-07T06:50:20;98863.03;;;5.25;69.66
61573;BME280;47465;43.094;12.434;2023-04-07T06:52:49;98892.72;;;5.62;69.07
61573;BME280;47465;43.094;12.434;2023-04-07T06:55:15;98880.38;;;5.70;67.11
61573;BME280;47465;43.094;12.434;2023-04-07T06:57:41;98878.50;;;5.86;66.20
61573;BME280;47465;43.094;12.434;2023-04-07T07:00:08;98854.69;;;5.94;65.63
61573;BME280;47465;43.094;12.434;2023-04-07T07:16:28;98846.50;;;7.17;61.49
61573;BME280;47465;43.094;12.434;2023-04-07T07:18:59;98847.13;;;7.38;60.51
61573;BME280;47465;43.094;12.434;2023-04-07T07:21:36;98850.56;;;7.45;60.51
61573;BME280;47465;43.094;12.434;2023-04-07T07:24:15;98843.38;;;7.56;59.60
61573;BME280;47465;43.094;12.434;2023-04-07T07:29:51;98865.59;;;7.44;59.25
61573;BME280;47465;43.094;12.434;2023-04-07T07:32:22;98846.94;;;7.50;58.78
61573;BME280;47465;43.094;12.434;2023-04-07T07:34:57;98870.16;;;7.96;56.58
61573;BME280;47465;43.094;12.434;2023-04-07T07:37:31;98860.88;;;8.25;56.85
61573;BME280;47465;43.094;12.434;2023-04-07T07:40:27;98870.09;;;8.57;55.69
61573;BME280;47465;43.094;12.434;2023-04-07T07:46:09;98862.13;;;9.07;53.71
61573;BME280;47465;43.094;12.434;2023-04-07T07:48:44;98824.06;;;9.06;53.06
61573;BME280;47465;43.094;12.434;2023-04-07T07:51:11;98829.81;;;8.84;53.03
61573;BME280;47465;43.094;12.434;2023-04-07T07:53:46;98842.50;;;9.14;52.28
61573;BME280;47465;43.094;12.434;2023-04-07T07:56:22;98853.44;;;9.42;51.75
61573;BME280;47465;43.094;12.434;2023-04-07T07:59:09;98867.13;;;9.64;52.00
61573;BME280;47465;43.094;12.434;2023-04-07T08:01:38;98854.66;;;9.68;49.78
61573;BME280;47465;43.094;12.434;2023-04-07T08:04:24;98835.50;;;9.11;50.01
61573;BME280;47465;43.094;12.434;2023-04-07T08:06:55;98846.06;;;8.68;50.63
61573;BME280;47465;43.094;12.434;2023-04-07T08:10:02;98865.56;;;9.10;50.69
61573;BME280;47465;43.094;12.434;2023-04-07T08:13:29;98821.09;;;9.23;49.54
61573;BME280;47465;43.094;12.434;2023-04-07T08:16:44;98866.78;;;9.79;50.45
61573;BME280;47465;43.094;12.434;2023-04-07T08:23:54;98819.91;;;9.36;49.87
61573;BME280;47465;43.094;12.434;2023-04-07T08:26:48;98819.06;;;9.36;50.88
61573;BME280;47465;43.094;12.434;2023-04-07T08:29:17;98858.09;;;9.31;50.88
61573;BME280;47465;43.094;12.434;2023-04-07T08:31:48;98828.25;;;9.60;50.78
61573;BME280;47465;43.094;12.434;2023-04-07T08:34:50;98856.94;;;10.22;50.34
61573;BME280;47465;43.094;12.434;2023-04-07T08:37:48;98839.09;;;10.63;48.02
61573;BME280;47465;43.094;12.434;2023-04-07T08:43:18;98838.28;;;10.94;46.16
61573;BME280;47465;43.094;12.434;2023-04-07T08:45:45;98810.53;;;11.02;45.72
61573;BME280;47465;43.094;12.434;2023-04-07T08:48:44;98798.75;;;11.11;46.06
61573;BME280;47465;43.094;12.434;2023-04-07T08:54:24;98804.56;;;10.94;47.24
61573;BME280;47465;43.094;12.434;2023-04-07T08:57:04;98797.69;;;10.87;47.16
61573;BME280;47465;43.094;12.434;2023-04-07T08:59:31;98795.78;;;11.22;46.99
61573;BME280;47465;43.094;12.434;2023-04-07T09:02:21;98798.72;;;11.72;46.07
61573;BME280;47465;43.094;12.434;2023-04-07T09:05:13;98808.97;;;11.56;45.12
61573;BME280;47465;43.094;12.434;2023-04-07T09:07:48;98793.00;;;11.84;45.56
61573;BME280;47465;43.094;12.434;2023-04-07T09:10:44;98815.56;;;12.29;44.91
61573;BME280;47465;43.094;12.434;2023-04-07T09:16:06;98777.41;;;12.27;44.22
61573;BME280;47465;43.094;12.434;2023-04-07T09:23:06;98805.34;;;11.87;43.76
61573;BME280;47465;43.094;12.434;2023-04-07T09:37:21;98761.03;;;12.64;41.52
61573;BME280;47465;43.094;12.434;2023-04-07T09:41:34;98731.66;;;12.39;41.15
61573;BME280;47465;43.094;12.434;2023-04-07T09:44:06;98714.81;;;12.12;40.77
61573;BME280;47465;43.094;12.434;2023-04-07T09:50:57;98739.66;;;12.39;42.41
61573;BME280;47465;43.094;12.434;2023-04-07T09:54:05;98707.63;;;12.14;41.94
61573;BME280;47465;43.094;12.434;2023-04-07T09:57:14;98703.56;;;12.29;40.91
61573;BME280;47465;43.094;12.434;2023-04-07T10:00:33;98698.47;;;12.73;40.66
61573;BME280;47465;43.094;12.434;2023-04-07T10:03:14;98712.41;;;13.27;40.23
61573;BME280;47465;43.094;12.434;2023-04-07T10:05:40;98701.91;;;13.46;39.32
61573;BME280;47465;43.094;12.434;2023-04-07T10:08:11;98700.25;;;13.65;38.35
61573;BME280;47465;43.094;12.434;2023-04-07T10:10:44;98697.16;;;13.54;38.76
61573;BME280;47465;43.094;12.434;2023-04-07T10:13:18;98704.13;;;13.11;38.78
61573;BME280;47465;43.094;12.434;2023-04-07T10:15:51;98711.56;;;13.50;38.85
61573;BME280;47465;43.094;12.434;2023-04-07T10:19:49;98681.13;;;13.54;39.36
61573;BME280;47465;43.094;12.434;2023-04-07T10:21:48;98687.72;;;13.88;38.13
61573;BME280;47465;43.094;12.434;2023-04-07T10:24:57;98700.13;;;14.11;38.12
61573;BME280;47465;43.094;12.434;2023-04-07T10:27:54;98672.59;;;13.88;37.88
61573;BME280;47465;43.094;12.434;2023-04-07T10:31:11;98714.00;;;13.98;36.66
61573;BME280;47465;43.094;12.434;2023-04-07T10:33:48;98670.16;;;14.03;36.30
61573;BME280;47465;43.094;12.434;2023-04-07T10:36:35;98654.06;;;14.04;35.57
61573;BME280;47465;43.094;12.434;2023-04-07T10:39:32;98674.44;;;13.86;35.67
61573;BME280;47465;43.094;12.434;2023-04-07T10:54:44;98665.44;;;14.09;36.03
61573;BME280;47465;43.094;12.434;2023-04-07T10:58:16;98676.34;;;14.46;37.62
61573;BME280;47465;43.094;12.434;2023-04-07T11:10:52;98675.06;;;14.94;36.05
61573;BME280;47465;43.094;12.434;2023-04-07T11:40:47;98605.88;;;14.66;33.53
61573;BME280;47465;43.094;12.434;2023-04-07T11:43:36;98598.16;;;14.97;32.17
61573;BME280;47465;43.094;12.434;2023-04-07T11:59:20;98582.72;;;15.03;32.29
61573;BME280;47465;43.094;12.434;2023-04-07T12:12:52;98582.75;;;15.39;31.10
61573;BME280;47465;43.094;12.434;2023-04-07T12:32:40;98545.00;;;16.13;30.21
61573;BME280;47465;43.094;12.434;2023-04-07T12:35:44;98522.78;;;16.11;29.27
61573;BME280;47465;43.094;12.434;2023-04-07T12:38:32;98554.88;;;16.46;28.24
61573;BME280;47465;43.094;12.434;2023-04-07T12:41:15;98514.38;;;16.17;28.07
61573;BME280;47465;43.094;12.434;2023-04-07T12:44:41;98536.94;;;16.13;27.97
61573;BME280;47465;43.094;12.434;2023-04-07T12:47:08;98502.00;;;15.81;28.35
61573;BME280;47465;43.094;12.434;2023-04-07T12:50:05;98505.34;;;16.02;28.43
61573;BME280;47465;43.094;12.434;2023-04-07T12:52:54;98504.56;;;16.00;27.37
61573;BME280;47465;43.094;12.434;2023-04-07T12:55:26;98473.94;;;16.05;27.19
61573;BME280;47465;43.094;12.434;2023-04-07T12:58:18;98473.19;;;16.18;27.31
61573;BME280;47465;43.094;12.434;2023-04-07T13:01:02;98475.13;;;16.32;27.79
61573;BME280;47465;43.094;12.434;2023-04-07T13:09:56;98475.41;;;15.94;26.50
61573;BME280;47465;43.094;12.434;2023-04-07T13:13:11;98498.19;;;15.68;27.64
61573;BME280;47465;43.094;12.434;2023-04-07T13:19:13;98476.72;;;16.68;28.43
61573;BME280;47465;43.094;12.434;2023-04-07T13:22:07;98450.44;;;16.26;27.95
61573;BME280;47465;43.094;12.434;2023-04-07T13:24:39;98449.59;;;16.41;28.46
61573;BME280;47465;43.094;12.434;2023-04-07T13:34:09;98455.34;;;17.29;27.28
61573;BME280;47465;43.094;12.434;2023-04-07T13:36:52;98461.22;;;17.50;26.63
61573;BME280;47465;43.094;12.434;2023-04-07T13:46:09;98449.38;;;17.68;24.95
61573;BME280;47465;43.094;12.434;2023-04-07T13:48:46;98458.97;;;17.28;24.26
61573;BME280;47465;43.094;12.434;2023-04-07T13:51:13;98450.53;;;17.34;23.88
61573;BME280;47465;43.094;12.434;2023-04-07T13:57:12;98462.47;;;17.14;23.27
61573;BME280;47465;43.094;12.434;2023-04-07T13:59:55;98443.97;;;16.61;24.11
61573;BME280;47465;43.094;12.434;2023-04-07T14:02:26;98444.41;;;16.54;24.40
61573;BME280;47465;43.094;12.434;2023-04-07T14:04:54;98419.81;;;16.46;22.68
61573;BME280;47465;43.094;12.434;2023-04-07T14:07:26;98420.06;;;16.25;23.60
61573;BME280;47465;43.094;12.434;2023-04-07T14:09:52;98419.47;;;16.36;24.77
61573;BME280;47465;43.094;12.434;2023-04-07T14:12:22;98413.28;;;16.02;23.62
61573;BME280;47465;43.094;12.434;2023-04-07T14:15:07;98442.09;;;15.98;24.51
61573;BME280;47465;43.094;12.434;2023-04-07T14:19:10;98450.63;;;15.89;24.42
61573;BME280;47465;43.094;12.434;2023-04-07T14:24:15;98385.19;;;16.25;24.45
61573;BME280;47465;43.094;12.434;2023-04-07T14:30:46;98437.72;;;16.93;23.85
61573;BME280;47465;43.094;12.434;2023-04-07T15:00:20;98383.31;;;15.78;27.88
61573;BME280;47465;43.094;12.434;2023-04-07T15:03:12;98386.31;;;16.05;27.82
61573;BME280;47465;43.094;12.434;2023-04-07T15:06:13;98362.31;;;15.86;28.17
61573;BME280;47465;43.094;12.434;2023-04-07T15:08:50;98372.78;;;16.07;28.83
61573;BME280;47465;43.094;12.434;2023-04-07T15:11:18;98397.50;;;16.29;28.96
61573;BME280;47465;43.094;12.434;2023-04-07T15:17:12;98404.31;;;16.03;30.18
61573;BME280;47465;43.094;12.434;2023-04-07T15:19:44;98391.75;;;15.70;30.55
61573;BME280;47465;43.094;12.434;2023-04-07T15:22:48;98370.91;;;15.59;30.38
61573;BME280;47465;43.094;12.434;2023-04-07T15:25:25;98400.25;;;15.78;30.96
61573;BME280;47465;43.094;12.434;2023-04-07T15:27:54;98386.94;;;15.09;31.59
61573;BME280;47465;43.094;12.434;2023-04-07T15:30:20;98382.69;;;15.22;33.09
61573;BME280;47465;43.094;12.434;2023-04-07T15:33:23;98377.16;;;15.43;32.70
61573;BME280;47465;43.094;12.434;2023-04-07T15:35:49;98390.97;;;15.86;31.62
61573;BME280;47465;43.094;12.434;2023-04-07T15:38:15;98406.13;;;16.18;31.06
61573;BME280;47465;43.094;12.434;2023-04-07T15:40:44;98371.75;;;15.93;30.48
61573;BME280;47465;43.094;12.434;2023-04-07T15:43:10;98375.25;;;16.27;30.03
61573;BME280;47465;43.094;12.434;2023-04-07T15:45:42;98369.88;;;16.27;30.08
61573;BME280;47465;43.094;12.434;2023-04-07T15:48:33;98410.78;;;15.99;30.72
61573;BME280;47465;43.094;12.434;2023-04-07T15:50:59;98404.78;;;15.94;30.72
61573;BME280;47465;43.094;12.434;2023-04-07T15:53:36;98404.69;;;15.62;31.65
61573;BME280;47465;43.094;12.434;2023-04-07T15:56:18;98365.50;;;15.09;31.97
61573;BME280;47465;43.094;12.434;2023-04-07T15:58:44;98411.91;;;15.09;32.20
61573;BME280;47465;43.094;12.434;2023-04-07T16:01:11;98381.56;;;14.74;33.21
61573;BME280;47465;43.094;12.434;2023-04-07T16:03:40;98410.56;;;15.00;32.69
61573;BME280;47465;43.094;12.434;2023-04-07T16:26:49;98418.63;;;14.45;33.82
61573;BME280;47465;43.094;12.434;2023-04-07T16:30:14;98396.56;;;14.59;34.28
61573;BME280;47465;43.094;12.434;2023-04-07T16:33:02;98398.78;;;14.32;34.57
61573;BME280;47465;43.094;12.434;2023-04-07T16:35:40;98384.84;;;14.06;35.02
61573;BME280;47465;43.094;12.434;2023-04-07T16:38:06;98385.13;;;14.00;35.11
61573;BME280;47465;43.094;12.434;2023-04-07T16:40:36;98366.56;;;13.97;35.48
61573;BME280;47465;43.094;12.434;2023-04-07T16:43:06;98378.84;;;14.01;35.36
61573;BME280;47465;43.094;12.434;2023-04-07T16:45:33;98413.16;;;14.10;35.42
61573;BME280;47465;43.094;12.434;2023-04-07T16:48:02;98375.50;;;14.15;35.22
61573;BME280;47465;43.094;12.434;2023-04-07T16:50:30;98402.97;;;14.18;35.22
61573;BME280;47465;43.094;12.434;2023-04-07T16:53:11;98423.22;;;14.05;35.40
61573;BME280;47465;43.094;12.434;2023-04-07T16:55:43;98386.72;;;14.04;35.75
61573;BME280;47465;43.094;12.434;2023-04-07T16:58:33;98425.94;;;14.04;35.80
61573;BME280;47465;43.094;12.434;2023-04-07T17:01:12;98432.13;;;13.85;36.24
61573;BME280;47465;43.094;12.434;2023-04-07T17:03:37;98423.31;;;13.64;36.88
61573;BME280;47465;43.094;12.434;2023-04-07T17:12:39;98405.63;;;13.21;38.13
61573;BME280;47465;43.094;12.434;2023-04-07T17:15:12;98434.63;;;13.30;38.20
61573;BME280;47465;43.094;12.434;2023-04-07T17:17:48;98400.44;;;12.95;38.85
61573;BME280;47465;43.094;12.434;2023-04-07T17:20:34;98445.13;;;13.12;39.45
61573;BME280;47465;43.094;12.434;2023-04-07T17:23:13;98442.81;;;13.03;39.45
61573;BME280;47465;43.094;12.434;2023-04-07T17:26:04;98454.38;;;13.04;39.63
61573;BME280;47465;43.094;12.434;2023-04-07T17:55:13;98452.25;;;12.02;45.92
61573;BME280;47465;43.094;12.434;2023-04-07T18:01:00;98495.50;;;12.08;47.79
61573;BME280;47465;43.094;12.434;2023-04-07T18:04:19;98480.84;;;11.97;48.42
61573;BME280;47465;43.094;12.434;2023-04-07T18:07:14;98488.28;;;11.88;49.47
61573;BME280;47465;43.094;12.434;2023-04-07T18:20:59;98540.66;;;11.88;52.94
61573;BME280;47465;43.094;12.434;2023-04-07T18:23:28;98527.53;;;11.82;53.15
61573;BME280;47465;43.094;12.434;2023-04-07T18:29:38;98514.44;;;11.50;54.28
61573;BME280;47465;43.094;12.434;2023-04-07T18:32:45;98527.41;;;11.60;54.65
61573;BME280;47465;43.094;12.434;2023-04-07T18:43:21;98536.97;;;11.40;55.92
61573;BME280;47465;43.094;12.434;2023-04-07T18:49:14;98559.25;;;11.38;56.38
61573;BME280;47465;43.094;12.434;2023-04-07T18:52:20;98575.84;;;11.46;56.57
61573;BME280;47465;43.094;12.434;2023-04-07T18:54:58;98575.97;;;11.43;56.44
61573;BME280;47465;43.094;12.434;2023-04-07T18:57:24;98566.69;;;11.28;56.59
61573;BME280;47465;43.094;12.434;2023-04-07T19:07:10;98540.66;;;11.09;56.47
61573;BME280;47465;43.094;12.434;2023-04-07T19:10:03;98586.22;;;11.27;55.69
61573;BME280;47465;43.094;12.434;2023-04-07T19:16:17;98588.75;;;11.03;55.47
61573;BME280;47465;43.094;12.434;2023-04-07T19:18:58;98557.31;;;10.88;55.07
61573;BME280;47465;43.094;12.434;2023-04-07T19:22:04;98563.91;;;10.76;55.16
61573;BME280;47465;43.094;12.434;2023-04-07T19:44:28;98603.47;;;10.26;58.50
61573;BME280;47465;43.094;12.434;2023-04-07T19:50:57;98635.72;;;10.12;60.20
61573;BME280;47465;43.094;12.434;2023-04-07T19:53:29;98605.81;;;9.73;62.33
61573;BME280;47465;43.094;12.434;2023-04-07T19:56:58;98624.03;;;9.52;64.58
61573;BME280;47465;43.094;12.434;2023-04-07T19:59:49;98613.38;;;9.18;66.45
61573;BME280;47465;43.094;12.434;2023-04-07T20:02:24;98624.16;;;9.10;66.76
61573;BME280;47465;43.094;12.434;2023-04-07T20:08:10;98621.38;;;8.77;68.45
61573;BME280;47465;43.094;12.434;2023-04-07T20:10:39;98618.13;;;8.64;68.80
61573;BME280;47465;43.094;12.434;2023-04-07T20:13:15;98622.66;;;8.59;68.97
61573;BME280;47465;43.094;12.434;2023-04-07T20:15:41;98615.66;;;8.57;68.54
61573;BME280;47465;43.094;12.434;2023-04-07T20:18:21;98640.25;;;8.62;68.60
61573;BME280;47465;43.094;12.434;2023-04-07T20:20:57;98606.34;;;8.36;69.06
61573;BME280;47465;43.094;12.434;2023-04-07T20:24:10;98606.47;;;8.28;69.48
61573;BME280;47465;43.094;12.434;2023-04-07T20:26:42;98623.72;;;8.51;68.60
61573;BME280;47465;43.094;12.434;2023-04-07T20:29:24;98654.16;;;8.73;67.63
61573;BME280;47465;43.094;12.434;2023-04-07T20:32:25;98596.50;;;8.42;68.23
61573;BME280;47465;43.094;12.434;2023-04-07T20:35:20;98652.56;;;8.66;68.58
61573;BME280;47465;43.094;12.434;2023-04-07T20:37:52;98614.22;;;8.40;68.79
61573;BME280;47465;43.094;12.434;2023-04-07T20:40:29;98635.28;;;8.47;68.60
61573;BME280;47465;43.094;12.434;2023-04-07T20:43:08;98616.31;;;8.23;68.97
61573;BME280;47465;43.094;12.434;2023-04-07T20:46:08;98617.22;;;8.22;69.48
61573;BME280;47465;43.094;12.434;2023-04-07T20:48:40;98609.28;;;8.20;69.75
61573;BME280;47465;43.094;12.434;2023-04-07T20:51:14;98605.72;;;8.23;68.99
61573;BME280;47465;43.094;12.434;2023-04-07T20:54:02;98607.19;;;8.36;68.01
61573;BME280;47465;43.094;12.434;2023-04-07T20:57:14;98638.53;;;8.61;68.48
61573;BME280;47465;43.094;12.434;2023-04-07T21:00:20;98640.13;;;8.70;67.45
61573;BME280;47465;43.094;12.434;2023-04-07T21:03:02;98627.78;;;8.67;67.28
61573;BME280;47465;43.094;12.434;2023-04-07T21:06:35;98604.34;;;8.49;68.00
61573;BME280;47465;43.094;12.434;2023-04-07T21:09:29;98605.38;;;8.40;69.03
61573;BME280;47465;43.094;12.434;2023-04-07T21:12:25;98648.38;;;8.54;69.27
61573;BME280;47465;43.094;12.434;2023-04-07T21:15:17;98653.63;;;8.57;69.52
61573;BME280;47465;43.094;12.434;2023-04-07T21:28:09;98603.78;;;8.31;69.65
61573;BME280;47465;43.094;12.434;2023-04-07T21:31:36;98627.44;;;8.42;70.41
61573;BME280;47465;43.094;12.434;2023-04-07T21:34:52;98650.34;;;8.45;71.29
61573;BME280;47465;43.094;12.434;2023-04-07T21:37:32;98616.38;;;8.20;70.62
61573;BME280;47465;43.094;12.434;2023-04-07T21:40:10;98616.28;;;8.25;70.22
61573;BME280;47465;43.094;12.434;2023-04-07T21:43:12;98655.50;;;8.52;70.12
61573;BME280;47465;43.094;12.434;2023-04-07T21:49:25;98611.78;;;8.28;69.40
61573;BME280;47465;43.094;12.434;2023-04-07T21:52:24;98628.41;;;8.35;69.46
61573;BME280;47465;43.094;12.434;2023-04-07T21:58:52;98616.31;;;8.23;70.62
61573;BME280;47465;43.094;12.434;2023-04-07T22:01:41;98617.34;;;8.16;71.84
61573;BME280;47465;43.094;12.434;2023-04-07T22:04:13;98638.41;;;8.22;72.12
61573;BME280;47465;43.094;12.434;2023-04-07T22:06:52;98660.97;;;8.43;71.88
61573;BME280;47465;43.094;12.434;2023-04-07T22:09:26;98620.00;;;8.16;72.50
61573;BME280;47465;43.094;12.434;2023-04-07T22:12:20;98609.19;;;8.25;72.79
61573;BME280;47465;43.094;12.434;2023-04-07T22:14:58;98615.47;;;8.21;73.36
61573;BME280;47465;43.094;12.434;2023-04-07T22:20:55;98630.72;;;8.08;75.35
61573;BME280;47465;43.094;12.434;2023-04-07T22:23:49;98613.19;;;8.02;75.06
61573;BME280;47465;43.094;12.434;2023-04-07T22:26:26;98613.50;;;7.86;76.02
61573;BME280;47465;43.094;12.434;2023-04-07T22:29:11;98617.94;;;7.85;77.12
61573;BME280;47465;43.094;12.434;2023-04-07T22:31:46;98647.66;;;7.98;77.79
61573;BME280;47465;43.094;12.434;2023-04-07T22:34:12;98643.31;;;7.95;78.35
61573;BME280;47465;43.094;12.434;2023-04-07T22:36:38;98624.97;;;7.85;78.58
61573;BME280;47465;43.094;12.434;2023-04-07T22:39:07;98635.38;;;7.95;78.45
61573;BME280;47465;43.094;12.434;2023-04-07T22:41:34;98663.97;;;8.25;78.23
61573;BME280;47465;43.094;12.434;2023-04-07T22:44:01;98609.81;;;7.94;78.59
61573;BME280;47465;43.094;12.434;2023-04-07T22:46:29;98650.94;;;8.14;78.68
61573;BME280;47465;43.094;12.434;2023-04-07T22:48:57;98647.31;;;8.18;78.90
61573;BME280;47465;43.094;12.434;2023-04-07T22:51:23;98642.03;;;8.18;78.70
61573;BME280;47465;43.094;12.434;2023-04-07T22:53:55;98600.00;;;7.99;78.83
61573;BME280;47465;43.094;12.434;2023-04-07T22:56:21;98595.31;;;8.14;77.92
61573;BME280;47465;43.094;12.434;2023-04-07T22:58:48;98594.16;;;8.26;77.34
61573;BME280;47465;43.094;12.434;2023-04-07T23:01:14;98594.06;;;8.30;76.90
61573;BME280;47465;43.094;12.434;2023-04-07T23:03:40;98631.44;;;8.61;76.37
61573;BME280;47465;43.094;12.434;2023-04-07T23:06:08;98598.00;;;8.54;75.42
61573;BME280;47465;43.094;12.434;2023-04-07T23:08:34;98629.09;;;8.88;73.73
61573;BME280;47465;43.094;12.434;2023-04-07T23:11:00;98600.19;;;8.76;73.52
61573;BME280;47465;43.094;12.434;2023-04-07T23:13:26;98630.56;;;9.01;72.29
61573;BME280;47465;43.094;12.434;2023-04-07T23:15:51;98619.81;;;9.06;71.53
61573;BME280;47465;43.094;12.434;2023-04-07T23:18:17;98605.69;;;9.07;70.92
61573;BME280;47465;43.094;12.434;2023-04-07T23:20:48;98621.28;;;9.19;70.53
61573;BME280;47465;43.094;12.434;2023-04-07T23:23:16;98610.63;;;9.22;69.34
61573;BME280;47465;43.094;12.434;2023-04-07T23:25:43;98609.63;;;9.27;68.32
61573;BME280;47465;43.094;12.434;2023-04-07T23:28:09;98596.59;;;9.17;67.85
61573;BME280;47465;43.094;12.434;2023-04-07T23:30:35;98628.13;;;9.30;67.41
61573;BME280;47465;43.094;12.434;2023-04-07T23:33:04;98616.97;;;9.15;66.87
61573;BME280;47465;43.094;12.434;2023-04-07T23:35:30;98626.66;;;9.16;66.59
61573;BME280;47465;43.094;12.434;2023-04-07T23:37:59;98604.00;;;9.03;67.07
61573;BME280;47465;43.094;12.434;2023-04-07T23:40:30;98648.38;;;9.34;67.22
61573;BME280;47465;43.094;12.434;2023-04-07T23:42:55;98627.41;;;9.23;66.49
61573;BME280;47465;43.094;12.434;2023-04-07T23:45:21;98637.75;;;9.34;65.90
61573;BME280;47465;43.094;12.434;2023-04-07T23:47:47;98629.06;;;9.27;66.75
61573;BME280;47465;43.094;12.434;2023-04-07T23:50:13;98581.09;;;8.99;67.39
61573;BME280;47465;43.094;12.434;2023-04-07T23:52:39;98597.84;;;9.01;66.02
61573;BME280;47465;43.094;12.434;2023-04-07T23:55:06;98594.34;;;9.00;64.97
61573;BME280;47465;43.094;12.434;2023-04-07T23:57:33;98624.03;;;9.15;66.48
61573;BME280;47465;43.094;12.434;2023-04-07T23:59:59;98585.78;;;8.88;67.63
